Главная страница
METAR-TAF:

METAR-TAF

Аэропорты :

Нади

Нанди, Фиджи

широта: 17-45S, долгота: 177-27E, высота над уровнем моря: 13 м

Текущие метеонаблюдения

Эта сводка был подготовлена 42 минут назад, в 15:00 UTC
Ветер 5 Узел от восточный
Температура 20°C
Влажность 83%
Давление 1014 hPa
Видимость 10 км и более
небольшая облачность на высоте 3000 фута

METAR: NFFN 181500Z 09005KT 9999 FEW030 20/17 Q1014 NOSIG

Время: 03:42 (15:42 UTC)

Прогноз

Эта сводка был подготовлена 4 часа и 34 минут назад, в 11:08 UTC
Прогноз действительный с 18-го 12 UTC до 19-го 12 UTC
Ветер 5 Узел от восточный
Видимость 10 км и более
небольшая облачность на высоте 2500 фута
изменения
С 18-го 23 UTC до 19-го 01 UTC
Ветер 10 Узел от западный
изменения
С 19-го 05 UTC до 19-го 07 UTC
Ветер 5 Узел от восточный

TAF: NFFN 181108Z 1812/1912 09005KT 9999 FEW025 BECMG 1823/1901 27010KT BECMG 1905/1907 09005KT

Метеонаблюдения и прогнозы для более 4000 аэропортов (сводки METAR и TAF).

Имеющиеся станции представлены на карте желтыми и красными точками.

Чтобы увидеть название станции, наведите на нее мышь.

Затем щелкните, чтобы увидеть метеонаблюдения и метеопрогнозы.

Управление картой: чтобы увеличить масштаб, щелкните зеленые кнопки с черным крестиком; чтобы уменьшить масштаб, щелкните зеленую кнопку с тире; для просмотра соседних карт щелкайте зеленые стрелки.


METAR-TAF: